createdAt,value
2024-01-12T00:01:13.759Z,69.29
2024-01-12T00:03:43.019Z,69.84
2024-01-12T00:06:12.026Z,70.41
2024-01-12T00:08:40.328Z,70.42
2024-01-12T00:11:10.381Z,70.25
2024-01-12T00:13:40.319Z,70.43
2024-01-12T00:16:08.903Z,70.98
2024-01-12T00:18:37.161Z,71.35
2024-01-12T00:21:05.850Z,71.12
2024-01-12T00:23:34.058Z,71.57
2024-01-12T00:26:04.311Z,71.51
2024-01-12T00:28:33.603Z,71.95
2024-01-12T00:31:03.165Z,72.10
2024-01-12T00:33:31.464Z,72.94
2024-01-12T00:35:59.708Z,72.97
2024-01-12T00:38:27.943Z,73.11
2024-01-12T00:40:56.175Z,73.19
2024-01-12T00:43:24.251Z,72.63
2024-01-12T00:45:52.539Z,71.83
2024-01-12T00:48:22.440Z,71.25
2024-01-12T00:50:50.864Z,71.71
2024-01-12T00:53:19.112Z,71.59
2024-01-12T00:55:47.254Z,72.31
2024-01-12T00:58:15.358Z,72.58
2024-01-12T01:00:43.577Z,72.74
2024-01-12T01:03:11.710Z,73.09
2024-01-12T01:05:41.692Z,73.56
2024-01-12T01:08:09.943Z,73.98
2024-01-12T01:10:40.080Z,73.73
2024-01-12T01:13:08.184Z,74.51
2024-01-12T01:15:36.350Z,75.15
2024-01-12T01:18:04.809Z,75.37
2024-01-12T01:20:34.510Z,76.43
2024-01-12T01:23:04.043Z,76.95
2024-01-12T01:25:34.319Z,76.55
2024-01-12T01:28:03.253Z,76.65
2024-01-12T01:30:31.674Z,76.94
2024-01-12T01:33:00.000Z,76.88
2024-01-12T01:35:28.396Z,76.34
2024-01-12T01:37:56.764Z,76.78
2024-01-12T01:40:26.387Z,76.31
2024-01-12T01:42:54.539Z,76.63
2024-01-12T01:45:22.782Z,76.87
2024-01-12T01:47:51.133Z,77.34
2024-01-12T01:50:19.551Z,77.54
2024-01-12T01:52:48.126Z,77.18
2024-01-12T01:55:17.174Z,77.61
2024-01-12T01:57:47.422Z,78.17
2024-01-12T02:01:14.063Z,77.91
2024-01-12T02:03:43.928Z,78.66
2024-01-12T02:06:13.381Z,77.04
2024-01-12T02:08:41.754Z,77.30
2024-01-12T02:11:10.915Z,77.29
2024-01-12T02:13:40.453Z,77.16
2024-01-12T02:16:09.750Z,77.34
2024-01-12T02:18:38.063Z,77.39
2024-01-12T02:21:07.855Z,77.88
2024-01-12T02:23:36.216Z,78.10
2024-01-12T02:26:04.472Z,77.63
2024-01-12T02:28:33.239Z,76.99
2024-01-12T02:31:04.180Z,76.42
2024-01-12T02:33:32.537Z,75.83
2024-01-12T02:36:00.702Z,76.20
2024-01-12T02:38:32.245Z,76.43
2024-01-12T02:41:00.396Z,75.76
2024-01-12T02:43:28.518Z,75.88
2024-01-12T02:45:56.705Z,76.29
2024-01-12T02:48:24.928Z,76.62
2024-01-12T02:50:53.115Z,76.50
2024-01-12T02:53:21.396Z,76.67
2024-01-12T02:55:51.005Z,76.52
2024-01-12T02:58:19.222Z,76.33
2024-01-12T03:00:47.464Z,76.91
2024-01-12T03:03:15.723Z,77.04
2024-01-12T03:05:44.105Z,76.85
2024-01-12T03:08:13.717Z,77.29
2024-01-12T03:10:41.858Z,77.69
2024-01-12T03:13:11.380Z,77.50
2024-01-12T03:15:39.761Z,77.65
2024-01-12T03:18:10.406Z,78.05
2024-01-12T03:20:38.703Z,78.04
2024-01-12T03:23:06.935Z,77.92
2024-01-12T03:25:35.081Z,78.25
2024-01-12T03:28:03.227Z,78.11
2024-01-12T03:30:32.788Z,78.17
2024-01-12T03:33:02.079Z,77.68
2024-01-12T03:35:30.307Z,77.80
2024-01-12T03:37:58.486Z,78.26
2024-01-12T03:40:26.645Z,78.13
2024-01-12T03:42:54.831Z,78.30
2024-01-12T03:45:22.999Z,77.51
2024-01-12T03:47:52.807Z,78.83
2024-01-12T03:50:21.788Z,79.18
2024-01-12T03:52:50.005Z,79.71
2024-01-12T03:55:18.116Z,79.77
2024-01-12T03:57:46.321Z,80.37
2024-01-12T04:00:15.534Z,81.05
2024-01-12T04:02:43.728Z,81.41
2024-01-12T04:05:13.529Z,81.87
2024-01-12T04:07:41.729Z,81.65
2024-01-12T04:10:10.129Z,81.42
2024-01-12T04:12:40.154Z,80.11
2024-01-12T04:15:10.415Z,80.21
2024-01-12T04:17:39.034Z,78.32
2024-01-12T04:20:08.986Z,78.89
2024-01-12T04:22:38.770Z,79.01
2024-01-12T04:25:08.048Z,79.38
2024-01-12T04:27:36.171Z,79.16
2024-01-12T04:30:04.620Z,79.98
2024-01-12T04:32:35.010Z,79.91
2024-01-12T04:35:03.279Z,80.93
2024-01-12T04:37:31.450Z,81.56
2024-01-12T04:40:00.958Z,82.02
2024-01-12T04:42:30.049Z,81.48
2024-01-12T04:44:58.228Z,81.53
2024-01-12T04:47:26.431Z,82.31
2024-01-12T04:49:54.639Z,82.05
2024-01-12T04:52:23.849Z,82.00
2024-01-12T04:54:53.068Z,81.54
2024-01-12T04:57:27.695Z,81.48
2024-01-12T04:59:56.211Z,82.05
2024-01-12T05:02:25.534Z,81.99
2024-01-12T05:05:00.752Z,81.82
2024-01-12T05:07:29.915Z,82.40
2024-01-12T05:09:58.127Z,82.44
2024-01-12T05:12:30.342Z,81.87
2024-01-12T05:15:03.257Z,81.60
2024-01-12T05:17:38.755Z,82.15
2024-01-12T05:20:09.829Z,81.91
2024-01-12T05:22:42.916Z,81.55
2024-01-12T05:25:11.165Z,81.79
2024-01-12T05:27:40.630Z,81.67
2024-01-12T05:30:10.731Z,81.72
2024-01-12T05:32:39.504Z,82.09
2024-01-12T05:35:09.264Z,81.90
2024-01-12T05:37:37.302Z,81.49
2024-01-12T05:40:08.609Z,81.35
2024-01-12T05:42:36.780Z,81.63
2024-01-12T05:45:08.837Z,81.94
2024-01-12T05:47:47.193Z,81.97
2024-01-12T05:50:16.621Z,81.85
2024-01-12T05:52:49.814Z,81.24
2024-01-12T05:55:19.176Z,81.75
2024-01-12T05:57:47.286Z,82.04
2024-01-12T06:00:17.696Z,81.79
2024-01-12T06:02:46.057Z,82.01
2024-01-12T06:05:14.255Z,81.25
2024-01-12T06:07:42.481Z,82.20
2024-01-12T06:10:11.196Z,82.27
2024-01-12T06:12:43.443Z,82.08
2024-01-12T06:15:11.748Z,81.44
2024-01-12T06:17:43.436Z,82.16
2024-01-12T06:20:14.138Z,81.76
2024-01-12T06:22:42.342Z,82.14
2024-01-12T06:25:10.589Z,82.80
2024-01-12T06:27:38.794Z,83.50
2024-01-12T06:30:08.464Z,83.04
2024-01-12T06:32:39.517Z,82.98
2024-01-12T06:35:11.020Z,83.16
2024-01-12T06:37:39.340Z,82.62
2024-01-12T06:40:08.605Z,82.80
2024-01-12T06:42:37.622Z,83.11
2024-01-12T06:45:08.684Z,83.67
2024-01-12T06:47:38.093Z,83.75
2024-01-12T06:50:12.837Z,83.60
2024-01-12T06:52:43.051Z,83.71
2024-01-12T06:55:13.208Z,84.79
2024-01-12T06:57:45.015Z,83.79
2024-01-12T07:00:14.072Z,84.87
2024-01-12T07:02:43.523Z,84.65
2024-01-12T07:05:18.595Z,84.40
2024-01-12T07:07:47.920Z,84.89
2024-01-12T07:10:22.318Z,84.76
2024-01-12T07:12:53.216Z,84.97
2024-01-12T07:15:23.522Z,84.63
2024-01-12T07:17:52.124Z,84.54
2024-01-12T07:20:22.063Z,84.99
2024-01-12T07:22:51.345Z,85.33
2024-01-12T07:25:21.587Z,85.73
2024-01-12T07:27:49.734Z,85.84
2024-01-12T07:30:21.162Z,85.82
2024-01-12T07:32:50.584Z,86.07
2024-01-12T07:35:37.538Z,85.75
2024-01-12T07:38:06.486Z,85.32
2024-01-12T07:40:45.450Z,85.25
2024-01-12T07:43:18.752Z,84.66
2024-01-12T07:46:03.701Z,83.47
2024-01-12T07:48:33.648Z,82.62
2024-01-12T07:51:08.154Z,81.14
2024-01-12T07:53:38.987Z,81.21
2024-01-12T07:56:09.179Z,80.87
2024-01-12T07:58:38.879Z,79.61
2024-01-12T08:01:14.800Z,78.62
2024-01-12T08:03:45.740Z,78.55
2024-01-12T08:06:24.738Z,78.68
2024-01-12T08:08:55.811Z,78.48
2024-01-12T08:11:40.772Z,77.66
2024-01-12T08:14:11.192Z,77.53
2024-01-12T08:16:40.694Z,76.73
2024-01-12T08:19:09.023Z,76.71
2024-01-12T08:21:45.740Z,75.83
2024-01-12T08:24:38.583Z,76.12
2024-01-12T08:27:12.797Z,75.45
2024-01-12T08:29:42.806Z,76.33
2024-01-12T08:32:13.132Z,75.11
2024-01-12T08:34:58.716Z,75.13
2024-01-12T08:37:28.381Z,75.00
2024-01-12T08:39:57.669Z,74.75
2024-01-12T08:42:32.090Z,74.26
2024-01-12T08:45:01.627Z,73.76
2024-01-12T08:47:31.215Z,74.09
2024-01-12T08:50:06.731Z,73.77
2024-01-12T08:52:42.316Z,73.68
2024-01-12T08:55:11.346Z,73.12
2024-01-12T08:57:41.750Z,73.19
2024-01-12T09:00:12.602Z,72.79
2024-01-12T09:02:55.012Z,73.36
2024-01-12T09:05:24.559Z,73.08
2024-01-12T09:07:56.189Z,73.31
2024-01-12T09:10:25.601Z,73.51
2024-01-12T09:13:06.893Z,73.34
2024-01-12T09:15:35.276Z,72.87
2024-01-12T09:18:22.471Z,73.35
2024-01-12T09:20:51.834Z,73.10
2024-01-12T09:23:22.467Z,72.44
2024-01-12T09:25:55.482Z,73.00
2024-01-12T09:28:46.121Z,72.40
2024-01-12T09:31:14.435Z,72.87
2024-01-12T09:34:02.009Z,71.82
2024-01-12T09:36:31.258Z,72.17
2024-01-12T09:39:02.030Z,70.34
2024-01-12T09:41:34.215Z,70.77
2024-01-12T09:44:11.341Z,71.39
2024-01-12T09:46:48.399Z,70.71
2024-01-12T09:49:29.114Z,70.62
2024-01-12T09:51:58.908Z,70.33
2024-01-12T09:54:30.552Z,69.66
2024-01-12T09:57:01.099Z,69.88
2024-01-12T09:59:35.734Z,69.85
2024-01-12T10:02:05.580Z,69.85
2024-01-12T10:04:49.954Z,69.63
2024-01-12T10:07:19.272Z,70.02
2024-01-12T10:10:07.969Z,69.58
2024-01-12T10:12:41.186Z,68.85
2024-01-12T10:15:13.428Z,69.35
2024-01-12T10:17:43.827Z,68.73
2024-01-12T10:20:13.339Z,69.14
2024-01-12T10:22:41.509Z,69.05
2024-01-12T10:25:20.450Z,68.41
2024-01-12T10:27:56.304Z,67.51
2024-01-12T10:30:41.619Z,67.54
2024-01-12T10:33:14.255Z,67.05
2024-01-12T10:36:08.282Z,67.23
2024-01-12T10:38:38.261Z,67.92
2024-01-12T10:41:10.721Z,67.51
2024-01-12T10:43:46.975Z,67.11
2024-01-12T10:46:29.743Z,66.67
2024-01-12T10:49:09.750Z,66.93
2024-01-12T10:51:41.956Z,66.45
2024-01-12T10:54:16.878Z,66.32
2024-01-12T10:56:47.744Z,66.38
2024-01-12T10:59:18.401Z,66.90
2024-01-12T11:01:52.690Z,67.30
2024-01-12T11:04:22.872Z,66.60
2024-01-12T11:07:02.811Z,66.74
2024-01-12T11:09:32.245Z,66.80
2024-01-12T11:12:24.760Z,66.75
2024-01-12T11:14:53.172Z,65.92
2024-01-12T11:17:49.608Z,66.47
2024-01-12T11:20:23.182Z,66.76
2024-01-12T11:22:52.287Z,66.38
2024-01-12T11:25:27.684Z,66.18
2024-01-12T11:27:59.401Z,65.42
2024-01-12T11:30:30.577Z,65.50
2024-01-12T11:33:05.620Z,65.56
2024-01-12T11:35:43.135Z,65.24
2024-01-12T11:38:11.983Z,65.29
2024-01-12T11:40:45.996Z,63.70
2024-01-12T11:43:19.103Z,63.41
2024-01-12T11:45:54.970Z,62.80
2024-01-12T11:48:25.350Z,62.56
2024-01-12T11:50:55.685Z,60.52
2024-01-12T11:53:34.030Z,60.19
2024-01-12T11:56:03.457Z,59.77
2024-01-12T11:58:37.780Z,59.19
2024-01-12T12:01:07.720Z,58.80
2024-01-12T12:03:36.968Z,58.76
2024-01-12T12:06:16.112Z,57.66
2024-01-12T12:08:45.519Z,58.42
2024-01-12T12:11:15.951Z,58.41
2024-01-12T12:13:52.261Z,58.61
2024-01-12T12:16:36.691Z,59.01
2024-01-12T12:19:06.452Z,58.42
2024-01-12T12:21:36.397Z,59.31
2024-01-12T12:24:08.903Z,58.24
2024-01-12T12:26:38.371Z,58.75
2024-01-12T12:29:08.273Z,57.79
2024-01-12T12:31:41.259Z,56.78
2024-01-12T12:34:11.584Z,56.69
2024-01-12T12:36:43.132Z,56.71
2024-01-12T12:39:11.535Z,55.87
2024-01-12T12:41:41.238Z,55.19
2024-01-12T12:44:19.614Z,56.31
2024-01-12T12:46:49.943Z,56.53
2024-01-12T12:49:19.245Z,56.48
2024-01-12T12:51:49.635Z,56.12
2024-01-12T12:54:18.459Z,56.12
2024-01-12T12:56:50.553Z,56.89
2024-01-12T12:59:36.885Z,57.89
2024-01-12T13:02:07.135Z,57.93
2024-01-12T13:04:44.556Z,57.47
2024-01-12T13:07:12.864Z,57.59
2024-01-12T13:09:45.152Z,57.30
2024-01-12T13:12:34.836Z,58.68
2024-01-12T13:15:07.798Z,58.40
2024-01-12T13:17:38.126Z,58.07
2024-01-12T13:20:09.481Z,56.66
2024-01-12T13:22:54.369Z,56.69
2024-01-12T13:25:51.924Z,56.95
2024-01-12T13:28:45.001Z,57.39
2024-01-12T13:31:16.729Z,58.53
2024-01-12T13:33:45.266Z,59.90
2024-01-12T13:36:15.017Z,59.67
2024-01-12T13:38:45.393Z,59.97
2024-01-12T13:41:15.682Z,60.41
2024-01-12T13:43:44.843Z,60.66
2024-01-12T13:46:18.793Z,60.50
2024-01-12T13:48:49.232Z,60.88
2024-01-12T13:52:09.826Z,60.54
2024-01-12T13:54:43.310Z,60.34
2024-01-12T13:57:16.978Z,60.33
2024-01-12T13:59:49.388Z,59.83
2024-01-12T14:02:25.451Z,60.41
2024-01-12T14:05:05.386Z,61.00
2024-01-12T14:07:49.393Z,60.68
2024-01-12T14:10:18.731Z,61.06
2024-01-12T14:12:49.150Z,61.30
2024-01-12T14:15:23.312Z,59.91
2024-01-12T14:17:57.136Z,60.17
2024-01-12T14:20:27.818Z,61.17
2024-01-12T14:23:03.068Z,61.89
2024-01-12T14:25:31.340Z,61.92
2024-01-12T14:28:23.141Z,62.15
2024-01-12T14:30:58.259Z,61.85
2024-01-12T14:33:31.390Z,62.48
2024-01-12T14:36:03.063Z,62.46
2024-01-12T14:38:35.423Z,62.64
2024-01-12T14:41:05.225Z,62.74
2024-01-12T14:43:40.688Z,63.23
2024-01-12T14:46:10.121Z,63.19
2024-01-12T14:48:43.757Z,63.05
2024-01-12T14:51:13.582Z,63.66
2024-01-12T14:53:42.371Z,63.00
2024-01-12T14:56:13.232Z,63.70
2024-01-12T14:58:44.274Z,64.42
2024-01-12T15:01:14.548Z,64.55
2024-01-12T15:03:51.546Z,64.62
2024-01-12T15:06:23.710Z,64.54
2024-01-12T15:08:58.094Z,64.83
2024-01-12T15:11:28.613Z,64.80
2024-01-12T15:13:58.503Z,64.74
2024-01-12T15:16:27.933Z,65.15
2024-01-12T15:19:01.938Z,64.91
2024-01-12T15:21:35.178Z,64.36
2024-01-12T15:24:04.799Z,65.18
2024-01-12T15:26:35.092Z,64.81
2024-01-12T15:29:03.487Z,64.90
2024-01-12T15:31:40.013Z,65.79
2024-01-12T15:34:11.941Z,65.25
2024-01-12T15:36:49.988Z,66.02
2024-01-12T15:40:12.929Z,65.63
2024-01-12T15:42:49.004Z,65.40
2024-01-12T15:45:25.455Z,65.30
2024-01-12T15:47:53.823Z,65.26
2024-01-12T15:50:26.993Z,64.91
2024-01-12T15:52:56.419Z,64.98
2024-01-12T15:55:24.817Z,65.57
2024-01-12T15:57:53.167Z,65.62
2024-01-12T16:00:21.806Z,65.44
2024-01-12T16:02:53.151Z,65.67
2024-01-12T16:05:21.453Z,65.94
2024-01-12T16:07:53.552Z,64.75
2024-01-12T16:10:24.923Z,64.36
2024-01-12T16:12:56.485Z,65.61
2024-01-12T16:15:26.043Z,66.50
2024-01-12T16:17:55.352Z,66.20
2024-01-12T16:20:23.916Z,66.74
2024-01-12T16:22:53.757Z,66.25
2024-01-12T16:25:21.863Z,66.02
2024-01-12T16:27:50.683Z,65.83
2024-01-12T16:30:30.348Z,66.32
2024-01-12T16:32:59.763Z,66.97
2024-01-12T16:35:28.112Z,66.92
2024-01-12T16:38:03.776Z,67.18
2024-01-12T16:40:32.267Z,67.01
2024-01-12T16:43:00.566Z,66.81
2024-01-12T16:45:28.832Z,67.11
2024-01-12T16:47:59.202Z,67.86
2024-01-12T16:50:27.496Z,67.37
2024-01-12T16:52:55.723Z,68.07
2024-01-12T16:55:27.666Z,67.74
2024-01-12T16:57:56.046Z,67.99
2024-01-12T17:00:26.320Z,67.06
2024-01-12T17:02:55.597Z,67.03
2024-01-12T17:05:24.259Z,66.51
2024-01-12T17:07:52.432Z,67.34
2024-01-12T17:10:20.582Z,66.68
2024-01-12T17:12:50.177Z,67.23
2024-01-12T17:15:18.685Z,67.00
2024-01-12T17:17:49.969Z,67.18
2024-01-12T17:20:18.790Z,66.95
2024-01-12T17:22:47.098Z,66.78
2024-01-12T17:25:15.924Z,66.09
2024-01-12T17:27:44.478Z,66.23
2024-01-12T17:30:26.860Z,66.70
2024-01-12T17:33:07.623Z,66.68
2024-01-12T17:35:39.371Z,66.83
2024-01-12T17:38:12.579Z,67.77
2024-01-12T17:40:40.761Z,67.95
2024-01-12T17:43:11.867Z,67.75
2024-01-12T17:45:43.435Z,68.44
2024-01-12T17:48:13.843Z,68.38
2024-01-12T17:50:43.317Z,68.82
2024-01-12T17:53:19.104Z,68.31
2024-01-12T17:55:50.171Z,68.30
2024-01-12T17:58:22.571Z,69.02
2024-01-12T18:00:53.240Z,68.88
2024-01-12T18:03:22.714Z,69.19
2024-01-12T18:06:04.432Z,68.66
2024-01-12T18:08:33.840Z,68.54
2024-01-12T18:11:03.324Z,67.76
2024-01-12T18:13:37.055Z,68.22
2024-01-12T18:16:16.626Z,68.80
2024-01-12T18:18:46.031Z,69.68
2024-01-12T18:21:19.542Z,70.37
2024-01-12T18:23:49.192Z,70.90
2024-01-12T18:26:18.869Z,71.01
2024-01-12T18:28:48.357Z,70.52
2024-01-12T18:31:33.447Z,70.84
2024-01-12T18:34:07.479Z,71.58
2024-01-12T18:36:37.246Z,71.90
2024-01-12T18:39:20.864Z,71.34
2024-01-12T18:41:53.195Z,71.73
2024-01-12T18:44:33.967Z,71.60
2024-01-12T18:47:04.710Z,71.28
2024-01-12T18:49:44.337Z,71.78
2024-01-12T18:52:13.590Z,71.80
2024-01-12T18:54:51.750Z,71.49
2024-01-12T18:57:22.617Z,72.13
2024-01-12T18:59:54.133Z,72.04
2024-01-12T19:02:24.926Z,71.32
2024-01-12T19:04:53.464Z,71.48
2024-01-12T19:07:22.634Z,72.03
2024-01-12T19:09:51.876Z,71.47
2024-01-12T19:12:21.542Z,71.03
2024-01-12T19:14:50.960Z,72.02
2024-01-12T19:17:19.285Z,72.00
2024-01-12T19:19:48.884Z,72.17
2024-01-12T19:22:17.316Z,72.25
2024-01-12T19:24:46.462Z,71.71
2024-01-12T19:27:15.859Z,72.26
2024-01-12T19:29:47.919Z,72.61
2024-01-12T19:32:16.129Z,72.62
2024-01-12T19:34:46.931Z,72.54
2024-01-12T19:37:19.858Z,72.60
2024-01-12T19:39:48.167Z,73.89
2024-01-12T19:42:28.525Z,74.10
2024-01-12T19:44:58.835Z,74.17
2024-01-12T19:47:27.573Z,74.15
2024-01-12T19:49:56.072Z,74.04
2024-01-12T19:52:26.020Z,73.59
2024-01-12T19:54:54.353Z,74.34
2024-01-12T19:57:21.897Z,74.29
2024-01-12T19:59:50.353Z,74.95
2024-01-12T20:02:20.837Z,75.15
2024-01-12T20:04:51.473Z,75.25
2024-01-12T20:07:20.992Z,74.66
2024-01-12T20:09:53.917Z,74.37
2024-01-12T20:12:24.066Z,74.24
2024-01-12T20:15:13.189Z,74.09
2024-01-12T20:17:44.108Z,74.50
2024-01-12T20:20:13.944Z,74.63
2024-01-12T20:22:43.391Z,75.41
2024-01-12T20:25:14.902Z,74.69
2024-01-12T20:27:43.303Z,74.11
2024-01-12T20:30:16.818Z,74.04
2024-01-12T20:32:47.654Z,74.60
2024-01-12T20:35:16.395Z,74.90
2024-01-12T20:37:50.748Z,74.91
2024-01-12T20:40:20.619Z,75.76
2024-01-12T20:43:14.892Z,75.06
2024-01-12T20:45:44.754Z,75.93
2024-01-12T20:48:29.850Z,75.75
2024-01-12T20:51:01.735Z,76.01
2024-01-12T20:53:30.814Z,76.19
2024-01-12T20:56:00.712Z,75.23
2024-01-12T20:58:29.158Z,75.26
2024-01-12T21:00:59.387Z,75.13
2024-01-12T21:03:30.932Z,75.19
2024-01-12T21:06:01.501Z,75.61
2024-01-12T21:08:29.980Z,75.97
2024-01-12T21:11:03.807Z,76.47
2024-01-12T21:13:32.174Z,75.95
2024-01-12T21:16:03.171Z,75.88
2024-01-12T21:18:31.667Z,76.28
2024-01-12T21:21:05.249Z,76.08
2024-01-12T21:23:48.156Z,75.86
2024-01-12T21:26:18.957Z,75.77
2024-01-12T21:28:52.553Z,75.40
2024-01-12T21:31:22.088Z,75.12
2024-01-12T21:33:58.584Z,74.74
2024-01-12T21:36:31.152Z,74.20
2024-01-12T21:39:13.386Z,73.87
2024-01-12T21:41:44.307Z,74.60
2024-01-12T21:44:12.672Z,74.40
2024-01-12T21:46:43.188Z,75.50
2024-01-12T21:49:11.963Z,74.62
2024-01-12T21:51:41.614Z,75.23
2024-01-12T21:54:20.253Z,75.04
2024-01-12T21:56:51.333Z,74.59
2024-01-12T21:59:20.737Z,74.60
2024-01-12T22:01:55.111Z,74.48
2024-01-12T22:04:23.456Z,74.31
2024-01-12T22:06:51.917Z,73.01
2024-01-12T22:09:24.995Z,72.71
2024-01-12T22:12:04.988Z,73.00
2024-01-12T22:14:34.305Z,71.72
2024-01-12T22:17:05.659Z,71.98
2024-01-12T22:19:36.074Z,71.66
2024-01-12T22:22:06.370Z,71.51
2024-01-12T22:24:37.016Z,72.21
2024-01-12T22:27:16.925Z,71.69
2024-01-12T22:29:45.251Z,71.58
2024-01-12T22:32:29.657Z,71.58
2024-01-12T22:35:00.576Z,71.42
2024-01-12T22:37:30.258Z,71.73
2024-01-12T22:40:05.440Z,71.49
2024-01-12T22:42:37.869Z,71.28
2024-01-12T22:45:10.379Z,71.38
2024-01-12T22:47:41.737Z,71.87
2024-01-12T22:50:12.386Z,71.95
2024-01-12T22:52:41.285Z,71.42
2024-01-12T22:55:10.766Z,71.78
2024-01-12T22:58:11.947Z,71.58
2024-01-12T23:00:42.370Z,71.94
2024-01-12T23:03:12.277Z,72.51
2024-01-12T23:05:41.973Z,72.68
2024-01-12T23:08:16.644Z,71.85
2024-01-12T23:10:45.381Z,72.20
2024-01-12T23:13:15.202Z,71.75
2024-01-12T23:15:43.619Z,72.46
2024-01-12T23:18:11.942Z,71.73
2024-01-12T23:20:40.194Z,71.75
2024-01-12T23:23:08.628Z,72.36
2024-01-12T23:25:37.528Z,71.67
2024-01-12T23:28:05.944Z,71.21
2024-01-12T23:30:40.424Z,71.57
2024-01-12T23:33:08.843Z,71.71
2024-01-12T23:35:37.278Z,70.66
2024-01-12T23:38:05.912Z,70.13
2024-01-12T23:40:34.060Z,71.08
2024-01-12T23:43:03.141Z,70.34
2024-01-12T23:45:31.321Z,70.40
2024-01-12T23:48:04.939Z,70.61
2024-01-12T23:50:37.925Z,70.29
2024-01-12T23:53:08.469Z,70.95
2024-01-12T23:55:39.819Z,70.42
2024-01-12T23:58:09.982Z,70.64
